Time;durP1;ratioP1;P1;durP2;ratioP2;P2;SDS_P1;SDS_P2;PMS_P1;PMS_P2;Temp;Humidity;BMP_temperature;BMP_pressure;BME280_temperature;BME280_humidity;BME280_pressure;Samples;Min_cycle;Max_cycle;Signal;HPM_P1;HPM_P2
2023/03/08 00:02:17;;;;;;;3.85;1.40;;;;;;;-2.29;100.00;99493.75;7399098;19;20167;-41
2023/03/08 00:04:46;;;;;;;10.45;1.35;;;;;;;-2.26;100.00;99494.00;7394370;19;20208;-41
2023/03/08 00:07:17;;;;;;;6.88;1.38;;;;;;;-2.27;100.00;99493.09;7398404;19;20207;-44
2023/03/08 00:09:46;;;;;;;3.25;1.40;;;;;;;-2.26;100.00;99494.00;7393862;19;20237;-43
2023/03/08 00:12:18;;;;;;;5.75;1.58;;;;;;;-2.29;100.00;99494.66;7399047;19;20151;-41
2023/03/08 00:14:47;;;;;;;5.80;1.52;;;;;;;-2.31;100.00;99486.06;7394937;19;20197;-45
2023/03/08 00:17:20;;;;;;;5.00;1.35;;;;;;;-2.32;100.00;99477.59;7398476;19;20591;-43
2023/03/08 00:19:49;;;;;;;3.70;1.38;;;;;;;-2.33;100.00;99485.06;7394750;19;20190;-48
2023/03/08 00:22:19;;;;;;;7.80;1.73;;;;;;;-2.29;100.00;99488.69;7399000;19;20145;-45
2023/03/08 00:24:49;;;;;;;4.65;1.38;;;;;;;-2.35;100.00;99484.09;7395140;19;20194;-41
2023/03/08 00:27:18;;;;;;;10.18;1.90;;;;;;;-2.35;100.00;99487.47;7398278;19;20138;-48
2023/03/08 00:29:48;;;;;;;5.15;1.35;;;;;;;-2.32;100.00;99486.81;7393343;19;20221;-42
2023/03/08 00:32:20;;;;;;;2.80;1.10;;;;;;;-2.27;100.00;99497.28;7397135;19;20145;-43
2023/03/08 00:34:49;;;;;;;7.60;2.00;;;;;;;-2.27;100.00;99500.69;7394772;19;20186;-41
2023/03/08 00:37:19;;;;;;;3.90;1.42;;;;;;;-2.23;100.00;99504.31;7398545;19;20154;-46
2023/03/08 00:39:52;;;;;;;2.80;1.50;;;;;;;-2.25;100.00;99503.31;7394525;19;20221;-43
2023/03/08 00:42:25;;;;;;;3.90;1.30;;;;;;;-2.25;100.00;99510.91;7396095;19;20321;-43
2023/03/08 00:44:54;;;;;;;5.97;1.60;;;;;;;-2.27;100.00;99512.44;7394261;19;20186;-43
2023/03/08 00:47:26;;;;;;;6.18;1.40;;;;;;;-2.27;100.00;99518.38;7398142;19;20135;-42
2023/03/08 00:49:56;;;;;;;6.25;1.30;;;;;;;-2.19;100.00;99511.34;7378965;19;20190;-43
2023/03/08 00:52:25;;;;;;;5.22;1.60;;;;;;;-2.20;100.00;99510.47;7397775;19;20516;-44
2023/03/08 00:54:54;;;;;;;4.05;1.40;;;;;;;-2.24;100.00;99522.78;7394366;19;20209;-47
2023/03/08 00:57:24;;;;;;;8.02;1.75;;;;;;;-2.25;100.00;99511.78;7397507;19;20147;-43
2023/03/08 00:59:53;;;;;;;3.05;1.40;;;;;;;-2.23;100.00;99510.25;7393446;19;20192;-46
2023/03/08 01:02:26;;;;;;;5.35;1.30;;;;;;;-2.26;100.00;99499.91;7398094;19;20238;-46
2023/03/08 01:04:55;;;;;;;2.60;1.30;;;;;;;-2.24;100.00;99492.44;7394144;19;20194;-41
2023/03/08 01:07:27;;;;;;;3.08;1.30;;;;;;;-2.39;100.00;99497.25;7397248;19;20162;-45
2023/03/08 01:09:57;;;;;;;3.80;1.55;;;;;;;-2.49;100.00;99505.81;7392236;19;20257;-41
2023/03/08 01:12:27;;;;;;;3.10;1.00;;;;;;;-2.50;100.00;99488.91;7396435;19;20131;-43
2023/03/08 01:14:57;;;;;;;4.28;1.50;;;;;;;-2.50;100.00;99499.00;7394021;19;20211;-41
2023/03/08 01:17:29;;;;;;;2.67;1.58;;;;;;;-2.46;100.00;99484.16;7396746;19;20545;-46
2023/03/08 01:19:59;;;;;;;6.60;1.60;;;;;;;-2.49;100.00;99485.59;7388747;19;20186;-42
2023/03/08 01:22:28;;;;;;;4.35;1.63;;;;;;;-2.51;100.00;99479.56;7397068;19;20134;-43
2023/03/08 01:24:58;;;;;;;8.13;2.00;;;;;;;-2.51;100.00;99469.47;7393025;19;20194;-40
2023/03/08 01:27:27;;;;;;;2.90;1.42;;;;;;;-2.61;100.00;99470.44;7396168;19;20146;-40
2023/03/08 01:29:57;;;;;;;3.00;1.90;;;;;;;-2.66;100.00;99464.16;7392206;19;20651;-46
2023/03/08 01:32:29;;;;;;;6.68;1.80;;;;;;;-2.69;100.00;99447.13;7396865;19;20395;-43
2023/03/08 01:35:03;;;;;;;3.85;2.20;;;;;;;-2.79;100.00;99443.06;7393301;19;20208;-43
2023/03/08 01:37:33;;;;;;;4.75;2.22;;;;;;;-2.76;100.00;99437.34;7396128;19;20206;-44
2023/03/08 01:40:03;;;;;;;4.45;2.33;;;;;;;-2.83;100.00;99445.25;7390800;19;20194;-43
2023/03/08 01:42:33;;;;;;;5.82;2.53;;;;;;;-2.78;100.00;99429.66;7396551;19;20637;-45
2023/03/08 01:45:05;;;;;;;5.28;2.70;;;;;;;-2.80;100.00;99428.66;7391003;19;20186;-43
2023/03/08 01:47:37;;;;;;;11.80;2.90;;;;;;;-2.82;100.00;99424.28;7396520;19;20153;-40
2023/03/08 01:50:10;;;;;;;5.80;2.50;;;;;;;-2.86;100.00;99426.56;7390839;19;20194;-42
2023/03/08 01:52:41;;;;;;;5.85;2.50;;;;;;;-2.88;100.00;99409.53;7394394;19;20150;-41
2023/03/08 01:55:14;;;;;;;3.25;2.50;;;;;;;-2.94;100.00;99409.06;7392695;19;20557;-43
2023/03/08 01:57:46;;;;;;;8.70;2.90;;;;;;;-2.93;100.00;99396.56;7394151;19;20131;-41
2023/03/08 02:00:18;;;;;;;13.45;3.03;;;;;;;-2.99;100.00;99402.06;7393747;19;20198;-41
2023/03/08 02:02:52;;;;;;;5.20;2.78;;;;;;;-2.96;100.00;99393.84;7394940;19;20162;-41
2023/03/08 02:05:22;;;;;;;8.93;3.00;;;;;;;-2.99;100.00;99380.97;7394991;19;20183;-42
2023/03/08 02:07:51;;;;;;;5.65;2.58;;;;;;;-2.94;100.00;99366.16;7391611;19;20154;-41
2023/03/08 02:10:21;;;;;;;5.40;3.00;;;;;;;-2.96;100.00;99355.97;7392567;19;20177;-43
2023/03/08 02:12:51;;;;;;;9.45;2.50;;;;;;;-2.98;100.00;99357.50;7392418;19;20135;-44
2023/03/08 02:15:22;;;;;;;4.18;2.35;;;;;;;-2.99;100.00;99346.53;7394577;19;20163;-43
2023/03/08 02:17:54;;;;;;;7.18;3.17;;;;;;;-2.99;100.00;99341.50;7386302;19;20162;-46
2023/03/08 02:20:26;;;;;;;7.40;2.88;;;;;;;-2.97;100.00;99344.13;7391545;19;20512;-43
2023/03/08 02:23:08;;;;;;;7.25;2.80;;;;;;;-3.01;100.00;99339.63;7392195;19;20164;-42
2023/03/08 02:25:38;;;;;;;8.75;3.10;;;;;;;-3.10;100.00;99343.97;7393569;19;20142;-43
2023/03/08 02:28:08;;;;;;;7.03;2.70;;;;;;;-3.08;100.00;99339.94;7391447;19;20146;-43
2023/03/08 02:30:39;;;;;;;7.63;3.10;;;;;;;-3.08;100.00;99345.84;7391855;19;20177;-42
2023/03/08 02:33:09;;;;;;;5.68;2.60;;;;;;;-3.07;100.00;99344.22;7391087;19;20216;-45
2023/03/08 02:35:41;;;;;;;3.90;2.65;;;;;;;-3.06;100.00;99341.81;7393594;19;20153;-41
2023/03/08 02:38:15;;;;;;;6.90;3.00;;;;;;;-3.06;100.00;99341.81;7390509;19;20302;-46
2023/03/08 02:40:44;;;;;;;6.88;2.55;;;;;;;-3.08;100.00;99334.88;7392838;19;20193;-42
2023/03/08 02:43:13;;;;;;;5.90;2.65;;;;;;;-3.05;100.00;99330.06;7390118;19;20198;-43
2023/03/08 02:45:43;;;;;;;4.22;2.10;;;;;;;-3.04;100.00;99332.69;7392858;19;20173;-42
2023/03/08 02:48:13;;;;;;;3.55;2.50;;;;;;;-2.98;100.00;99329.72;7376575;19;20217;-44
2023/03/08 02:50:42;;;;;;;3.72;1.90;;;;;;;-2.96;100.00;99324.78;7392799;19;20175;-48
2023/03/08 02:53:14;;;;;;;4.60;2.38;;;;;;;-2.86;100.00;99324.72;7390662;19;20198;-42
2023/03/08 02:55:44;;;;;;;5.25;3.00;;;;;;;-2.79;100.00;99323.47;7398080;19;20610;-43
2023/03/08 02:58:13;;;;;;;4.82;2.45;;;;;;;-2.77;100.00;99322.81;7404253;19;20198;-44
2023/03/08 03:00:43;;;;;;;4.13;2.58;;;;;;;-2.74;100.00;99323.06;7405437;19;20174;-42
2023/03/08 03:03:12;;;;;;;5.70;2.58;;;;;;;-2.61;100.00;99317.22;7403846;19;20925;-43
2023/03/08 03:05:45;;;;;;;5.93;3.28;;;;;;;-2.59;100.00;99317.34;7406590;19;20609;-45
2023/03/08 03:08:17;;;;;;;17.85;3.58;;;;;;;-2.52;100.00;99311.94;7404852;19;20225;-41
2023/03/08 03:10:47;;;;;;;10.07;4.90;;;;;;;-2.48;100.00;99310.50;7405756;19;20650;-46
2023/03/08 03:13:16;;;;;;;8.07;4.63;;;;;;;-2.46;100.00;99309.00;7404197;19;20667;-40
2023/03/08 03:15:46;;;;;;;9.38;4.25;;;;;;;-2.42;100.00;99305.03;7404394;19;20150;-44
2023/03/08 03:18:15;;;;;;;5.72;4.18;;;;;;;-2.40;100.00;99301.84;7397264;19;20665;-45
2023/03/08 03:20:45;;;;;;;9.68;4.35;;;;;;;-2.35;100.00;99297.97;7405914;19;20197;-45
2023/03/08 03:23:17;;;;;;;6.60;3.38;;;;;;;-2.35;100.00;99300.50;7404380;19;20193;-39
2023/03/08 03:25:46;;;;;;;10.55;4.35;;;;;;;-2.33;100.00;99296.44;7406350;19;20138;-44
2023/03/08 03:28:16;;;;;;;9.73;5.55;;;;;;;-2.32;100.00;99303.25;7402332;19;20217;-42
2023/03/08 03:30:45;;;;;;;8.18;4.60;;;;;;;-2.27;100.00;99310.28;7405234;19;20178;-42
2023/03/08 03:33:15;;;;;;;8.95;5.60;;;;;;;-2.27;100.00;99305.22;7403248;19;20190;-44
2023/03/08 03:35:44;;;;;;;12.20;6.20;;;;;;;-2.23;100.00;99307.19;7406199;19;20134;-41
2023/03/08 03:38:16;;;;;;;12.07;6.05;;;;;;;-2.24;100.00;99315.53;7402550;19;20190;-43
2023/03/08 03:40:46;;;;;;;7.93;5.00;;;;;;;-2.22;100.00;99314.88;7405447;19;20528;-44
2023/03/08 03:43:15;;;;;;;10.05;6.30;;;;;;;-2.18;100.00;99311.81;7402842;19;20213;-43
2023/03/08 03:45:45;;;;;;;11.63;5.88;;;;;;;-2.19;100.00;99315.06;7406448;19;20142;-42
2023/03/08 03:48:16;;;;;;;11.95;5.93;;;;;;;-2.19;100.00;99311.69;7397518;19;20723;-42
2023/03/08 03:50:45;;;;;;;10.15;6.43;;;;;;;-2.14;100.00;99317.94;7405175;19;20174;-44
2023/03/08 03:53:17;;;;;;;10.13;6.43;;;;;;;-2.11;100.00;99318.13;7402918;19;20299;-44
2023/03/08 03:55:47;;;;;;;11.73;5.22;;;;;;;-2.10;100.00;99319.88;7406034;19;20141;-48
2023/03/08 03:58:16;;;;;;;11.20;6.32;;;;;;;-2.09;100.00;99323.31;7405481;19;20592;-43
2023/03/08 04:00:46;;;;;;;11.68;6.57;;;;;;;-2.11;100.00;99328.25;7404333;19;20175;-46
2023/03/08 04:03:15;;;;;;;11.48;5.80;;;;;;;-2.08;100.00;99333.53;7406743;19;20171;-48
2023/03/08 04:05:45;;;;;;;9.35;5.63;;;;;;;-2.09;100.00;99339.38;7402598;19;20232;-44
2023/03/08 04:08:17;;;;;;;10.32;5.95;;;;;;;-2.10;100.00;99335.06;7398648;19;20141;-45
2023/03/08 04:10:46;;;;;;;9.55;5.85;;;;;;;-2.04;100.00;99332.97;7395285;19;20564;-43
2023/03/08 04:13:16;;;;;;;13.25;6.47;;;;;;;-2.05;100.00;99326.16;7398473;19;20158;-42
2023/03/08 04:15:46;;;;;;;9.52;6.25;;;;;;;-2.04;100.00;99335.47;7397816;19;20152;-40
2023/03/08 04:18:16;;;;;;;8.95;5.95;;;;;;;-2.03;100.00;99346.50;7398047;19;20139;-45
2023/03/08 04:20:45;;;;;;;6.05;3.45;;;;;;;-2.04;100.00;99335.47;7394719;19;20690;-43
2023/03/08 04:23:18;;;;;;;13.23;6.70;;;;;;;-2.07;100.00;99342.88;7398364;19;20143;-39
2023/03/08 04:25:48;;;;;;;11.80;5.93;;;;;;;-2.05;100.00;99346.38;7395577;19;20194;-43
2023/03/08 04:28:18;;;;;;;9.63;4.40;;;;;;;-2.07;100.00;99350.44;7398180;19;20174;-41
2023/03/08 04:30:47;;;;;;;15.07;5.53;;;;;;;-2.04;100.00;99355.72;7397113;19;20270;-43
2023/03/08 04:33:17;;;;;;;14.07;6.55;;;;;;;-2.00;100.00;99356.78;7398417;19;20414;-43
2023/03/08 04:35:46;;;;;;;14.10;7.45;;;;;;;-1.97;100.00;99348.56;7397601;19;20499;-42
2023/03/08 04:38:18;;;;;;;13.80;6.63;;;;;;;-1.98;100.00;99341.75;7397912;19;20155;-41
2023/03/08 04:41:06;;;;;;;12.38;7.50;;;;;;;-1.99;100.00;99337.47;7395507;19;20180;-43
2023/03/08 04:43:36;;;;;;;12.75;6.60;;;;;;;-1.98;100.00;99344.28;7398595;19;20146;-44
2023/03/08 04:46:06;;;;;;;13.90;7.43;;;;;;;-1.98;100.00;99334.16;7395593;19;20153;-43
2023/03/08 04:48:35;;;;;;;15.38;7.07;;;;;;;-1.96;100.00;99338.56;7397427;19;20207;-42
2023/03/08 04:51:07;;;;;;;12.20;6.07;;;;;;;-1.97;100.00;99338.44;7372890;19;20172;-42
2023/03/08 04:53:40;;;;;;;12.15;6.80;;;;;;;-1.96;100.00;99335.13;7393993;19;20622;-40
2023/03/08 04:56:10;;;;;;;11.30;6.15;;;;;;;-1.98;100.00;99339.22;7391902;19;20147;-45
2023/03/08 04:58:40;;;;;;;14.30;7.10;;;;;;;-1.95;100.00;99334.38;7395082;19;20137;-45
2023/03/08 05:01:11;;;;;;;10.10;4.85;;;;;;;-1.96;100.00;99345.25;7395594;19;20670;-44
2023/03/08 05:03:41;;;;;;;11.90;5.78;;;;;;;-1.98;100.00;99344.28;7396553;19;20504;-40
2023/03/08 05:06:11;;;;;;;9.45;5.38;;;;;;;-1.97;100.00;99340.97;7392508;19;20201;-40
2023/03/08 05:08:43;;;;;;;8.40;5.25;;;;;;;-1.96;100.00;99342.72;7395678;19;20247;-42
2023/03/08 05:11:17;;;;;;;10.50;5.43;;;;;;;-1.96;100.00;99335.13;7392017;19;20194;-42
2023/03/08 05:13:46;;;;;;;8.13;3.97;;;;;;;-1.99;100.00;99345.03;7396806;19;20159;-45
2023/03/08 05:16:16;;;;;;;6.47;4.10;;;;;;;-1.99;100.00;99347.56;7391824;19;20529;-42
2023/03/08 05:18:45;;;;;;;6.95;3.85;;;;;;;-1.99;100.00;99347.56;7387666;19;20134;-42
2023/03/08 05:21:17;;;;;;;7.60;4.55;;;;;;;-1.98;100.00;99351.84;7391368;19;20229;-41
2023/03/08 05:23:49;;;;;;;6.40;4.13;;;;;;;-1.99;100.00;99352.63;7395598;19;20138;-44
2023/03/08 05:26:20;;;;;;;8.55;4.07;;;;;;;-2.01;100.00;99351.66;7391754;19;20202;-49
2023/03/08 05:28:49;;;;;;;8.13;5.50;;;;;;;-1.97;100.00;99351.06;7394969;19;20142;-39
2023/03/08 05:31:21;;;;;;;9.15;5.10;;;;;;;-1.97;100.00;99351.06;7391340;19;20671;-43
2023/03/08 05:33:52;;;;;;;8.52;4.93;;;;;;;-2.01;100.00;99349.13;7395267;19;20163;-41
2023/03/08 05:36:22;;;;;;;6.90;4.38;;;;;;;-2.04;100.00;99353.19;7391184;19;20190;-41
2023/03/08 05:38:57;;;;;;;19.13;7.95;;;;;;;-1.97;100.00;99351.06;7395339;19;20170;-42
2023/03/08 05:41:26;;;;;;;8.80;5.63;;;;;;;-1.96;100.00;99362.94;7391380;19;20205;-42
2023/03/08 05:43:57;;;;;;;14.90;8.80;;;;;;;-1.93;100.00;99363.16;7394852;19;20150;-45
2023/03/08 05:46:26;;;;;;;25.75;13.70;;;;;;;-1.81;100.00;99353.91;7391395;19;20213;-40
2023/03/08 05:48:59;;;;;;;20.92;11.40;;;;;;;-1.65;100.00;99357.47;7394885;19;20198;-44
2023/03/08 05:51:29;;;;;;;17.50;10.02;;;;;;;-1.80;100.00;99364.91;7390769;19;20202;-40
2023/03/08 05:54:01;;;;;;;26.80;13.65;;;;;;;-1.57;100.00;99366.47;7394924;19;20150;-43
2023/03/08 05:56:30;;;;;;;17.13;10.38;;;;;;;-1.61;100.00;99379.69;7391085;19;20205;-43
2023/03/08 05:58:59;;;;;;;28.40;12.13;;;;;;;-1.74;100.00;99387.19;7393894;19;20162;-41
2023/03/08 06:01:30;;;;;;;22.38;12.75;;;;;;;-1.83;100.00;99390.88;7389281;19;20230;-46
2023/03/08 06:03:59;;;;;;;19.52;12.77;;;;;;;-1.75;100.00;99393.91;7395679;19;20501;-41
2023/03/08 06:06:29;;;;;;;21.85;11.65;;;;;;;-1.78;100.00;99389.50;7391731;19;20210;-44
2023/03/08 06:09:01;;;;;;;24.92;11.40;;;;;;;-1.77;100.00;99390.41;7392828;19;20481;-41
2023/03/08 06:11:31;;;;;;;17.95;10.40;;;;;;;-1.75;100.00;99390.50;7390841;19;20208;-41
2023/03/08 06:14:00;;;;;;;24.10;11.70;;;;;;;-1.74;100.00;99404.91;7393109;19;20135;-45
2023/03/08 06:16:30;;;;;;;19.83;10.80;;;;;;;-1.75;100.00;99395.56;7390946;19;20195;-45
2023/03/08 06:18:59;;;;;;;19.88;11.02;;;;;;;-1.73;100.00;99394.91;7394285;19;20147;-47
2023/03/08 06:21:29;;;;;;;22.77;9.93;;;;;;;-1.72;100.00;99403.34;7390988;19;20201;-44
2023/03/08 06:24:01;;;;;;;18.13;9.23;;;;;;;-1.72;100.00;99404.25;7394749;19;20533;-41
2023/03/08 06:26:31;;;;;;;21.42;9.43;;;;;;;-1.77;100.00;99396.34;7390741;19;20198;-40
2023/03/08 06:29:00;;;;;;;14.82;7.63;;;;;;;-1.71;100.00;99400.03;7394260;19;20474;-46
2023/03/08 06:31:29;;;;;;;12.57;7.78;;;;;;;-1.68;100.00;99401.16;7387529;19;20221;-41
2023/03/08 06:33:59;;;;;;;11.77;6.78;;;;;;;-1.73;100.00;99404.13;7392756;19;20130;-43
2023/03/08 06:36:29;;;;;;;11.52;5.72;;;;;;;-1.77;100.00;99405.56;7390941;19;20193;-42
2023/03/08 06:39:01;;;;;;;14.82;8.02;;;;;;;-1.75;100.00;99404.00;7393861;19;20138;-43
2023/03/08 06:41:31;;;;;;;15.10;7.65;;;;;;;-1.77;100.00;99406.47;7390486;19;20225;-44
2023/03/08 06:44:00;;;;;;;14.65;6.97;;;;;;;-1.77;100.00;99416.56;7393879;19;20660;-43
2023/03/08 06:46:30;;;;;;;12.15;6.45;;;;;;;-1.84;100.00;99413.50;7390299;19;20193;-46
2023/03/08 06:49:03;;;;;;;24.92;9.57;;;;;;;-1.80;100.00;99411.28;7393421;19;20141;-42
2023/03/08 06:51:32;;;;;;;15.32;7.55;;;;;;;-1.71;100.00;99407.63;7390332;19;20202;-43
2023/03/08 06:54:04;;;;;;;21.15;10.13;;;;;;;-1.78;100.00;99409.72;7391673;19;20135;-41
2023/03/08 06:56:33;;;;;;;10.75;6.03;;;;;;;-1.81;100.00;99412.06;7389775;19;20186;-43
2023/03/08 06:59:03;;;;;;;22.25;11.98;;;;;;;-1.80;100.00;99412.97;7392892;19;20135;-43
2023/03/08 07:01:33;;;;;;;20.92;10.40;;;;;;;-1.71;100.00;99415.22;7386707;19;20205;-42
2023/03/08 07:04:02;;;;;;;16.85;9.07;;;;;;;-1.76;100.00;99409.84;7392732;19;20144;-44
2023/03/08 07:06:32;;;;;;;18.80;9.07;;;;;;;-1.73;100.00;99412.59;7389729;19;20265;-44
2023/03/08 07:09:04;;;;;;;17.03;9.10;;;;;;;-1.72;100.00;99411.84;7392690;19;20496;-40
2023/03/08 07:11:34;;;;;;;13.45;6.93;;;;;;;-1.69;100.00;99409.50;7389790;19;20770;-41
2023/03/08 07:14:03;;;;;;;15.40;8.43;;;;;;;-1.67;100.00;99417.19;7391704;19;20567;-44
2023/03/08 07:16:32;;;;;;;7.97;4.57;;;;;;;-1.71;100.00;99420.28;7388441;19;20209;-40
2023/03/08 07:19:03;;;;;;;12.50;6.43;;;;;;;-1.75;100.00;99423.38;7392301;19;20130;-41
2023/03/08 07:21:32;;;;;;;17.15;7.60;;;;;;;-1.65;100.00;99419.06;7387128;19;20229;-42
2023/03/08 07:24:06;;;;;;;16.10;7.22;;;;;;;-1.63;100.00;99426.78;7392823;19;20151;-44
2023/03/08 07:26:35;;;;;;;12.43;6.10;;;;;;;-1.68;100.00;99431.50;7389686;19;20212;-44
2023/03/08 07:29:05;;;;;;;12.32;6.75;;;;;;;-1.62;100.00;99426.00;7392306;19;20554;-41
2023/03/08 07:31:35;;;;;;;12.70;6.60;;;;;;;-1.65;100.00;99436.78;7386950;19;20194;-41
2023/03/08 07:34:04;;;;;;;14.20;7.25;;;;;;;-1.59;100.00;99428.72;7390786;19;20135;-41
2023/03/08 07:36:34;;;;;;;8.65;5.70;;;;;;;-1.63;100.00;99431.81;7389466;19;20665;-42
2023/03/08 07:39:06;;;;;;;11.52;7.07;;;;;;;-1.56;100.00;99439.06;7391285;19;20145;-41
2023/03/08 07:41:35;;;;;;;10.02;5.47;;;;;;;-1.60;100.00;99439.63;7388178;19;20671;-40
2023/03/08 07:44:05;;;;;;;9.38;6.03;;;;;;;-1.53;100.00;99438.41;7398596;19;20147;-39
2023/03/08 07:46:34;;;;;;;7.57;5.10;;;;;;;-1.54;100.00;99440.03;7396566;19;20223;-45
2023/03/08 07:49:09;;;;;;;9.73;5.40;;;;;;;-1.57;100.00;99439.84;7398693;19;20135;-44
2023/03/08 07:51:38;;;;;;;8.57;5.50;;;;;;;-1.50;100.00;99441.13;7393802;19;20209;-43
2023/03/08 07:54:12;;;;;;;10.48;5.97;;;;;;;-1.43;100.00;99447.50;7397725;19;20163;-46
2023/03/08 07:56:41;;;;;;;9.85;5.07;;;;;;;-1.45;100.00;99447.38;7395404;19;20599;-41
2023/03/08 07:59:11;;;;;;;10.50;5.85;;;;;;;-1.42;100.00;99450.16;7395881;19;20142;-43
2023/03/08 08:01:40;;;;;;;14.18;5.88;;;;;;;-1.37;100.00;99452.97;7393477;19;20212;-42
2023/03/08 08:04:11;;;;;;;12.43;6.07;;;;;;;-1.33;100.00;99451.53;7399037;19;20154;-45
2023/03/08 08:06:41;;;;;;;10.15;5.47;;;;;;;-1.34;100.00;99458.25;7391108;19;20193;-42
2023/03/08 08:09:14;;;;;;;11.57;6.57;;;;;;;-1.30;100.00;99452.63;7397265;19;20162;-42
2023/03/08 08:11:43;;;;;;;16.05;7.35;;;;;;;-1.26;100.00;99456.25;7393851;19;20225;-42
2023/03/08 08:14:13;;;;;;;25.30;12.35;;;;;;;-1.28;100.00;99467.91;7396739;19;20146;-44
2023/03/08 08:16:42;;;;;;;18.98;7.97;;;;;;;-1.25;100.00;99468.13;7393744;19;20209;-44
2023/03/08 08:19:13;;;;;;;21.95;10.00;;;;;;;-1.22;100.00;99465.81;7396074;19;20210;-46
2023/03/08 08:21:42;;;;;;;19.27;9.20;;;;;;;-1.16;100.00;99463.69;7392899;19;20197;-42
2023/03/08 08:24:14;;;;;;;22.05;9.55;;;;;;;-1.16;100.00;99467.88;7398157;19;20146;-50
2023/03/08 08:26:44;;;;;;;19.48;10.70;;;;;;;-1.13;100.00;99447.84;7392758;19;20193;-40
2023/03/08 08:29:14;;;;;;;28.35;10.90;;;;;;;-1.05;100.00;99444.16;7398149;19;20174;-40
2023/03/08 08:31:44;;;;;;;22.67;10.82;;;;;;;-1.00;100.00;99440.28;7392337;19;20238;-41
2023/03/08 08:34:13;;;;;;;22.63;10.77;;;;;;;-0.96;100.00;99451.50;7396888;19;20127;-40
2023/03/08 08:36:43;;;;;;;22.63;10.57;;;;;;;-1.06;100.00;99461.78;7392213;19;20186;-41
2023/03/08 08:39:15;;;;;;;22.58;11.40;;;;;;;-1.10;100.00;99463.22;7397374;19;20142;-46
2023/03/08 08:41:44;;;;;;;20.58;9.98;;;;;;;-1.13;100.00;99468.09;7391921;19;20202;-44
2023/03/08 08:44:14;;;;;;;25.27;9.95;;;;;;;-1.09;100.00;99464.97;7396971;19;20141;-42
2023/03/08 08:46:43;;;;;;;24.40;9.85;;;;;;;-1.09;100.00;99453.19;7392153;19;20196;-42
2023/03/08 08:49:13;;;;;;;23.50;11.00;;;;;;;-1.04;100.00;99465.31;7396450;19;20143;-40
2023/03/08 08:51:42;;;;;;;24.23;11.48;;;;;;;-1.04;100.00;99468.69;7391327;19;20202;-42
2023/03/08 08:54:14;;;;;;;28.65;11.55;;;;;;;-1.01;100.00;99466.38;7395300;19;20631;-40
2023/03/08 08:56:44;;;;;;;24.42;10.80;;;;;;;-0.97;100.00;99478.47;7392599;19;20194;-44
2023/03/08 08:59:15;;;;;;;26.10;12.15;;;;;;;-0.97;100.00;99486.06;7396145;19;20131;-43
2023/03/08 09:01:45;;;;;;;26.95;11.70;;;;;;;-0.99;100.00;99492.69;7388436;19;20214;-41
2023/03/08 09:04:16;;;;;;;23.48;11.88;;;;;;;-1.02;100.00;99496.66;7393968;19;20231;-46
2023/03/08 09:06:46;;;;;;;25.85;13.02;;;;;;;-0.93;100.00;99492.19;7393234;19;20200;-42
2023/03/08 09:09:19;;;;;;;25.45;12.70;;;;;;;-0.80;100.00;99483.78;7395896;19;20147;-43
2023/03/08 09:11:49;;;;;;;24.13;11.15;;;;;;;-0.74;100.00;99493.44;7391056;19;20193;-44
2023/03/08 09:14:24;;;;;;;22.52;11.05;;;;;;;-0.72;100.00;99494.44;7395072;19;20503;-42
2023/03/08 09:16:53;;;;;;;26.95;13.70;;;;;;;-0.74;100.00;99488.38;7391717;19;20194;-41
2023/03/08 09:19:23;;;;;;;28.25;11.63;;;;;;;-0.56;100.00;99484.53;7395395;19;20143;-44
2023/03/08 09:21:53;;;;;;;23.13;10.43;;;;;;;-0.65;100.00;99493.19;7390869;19;20297;-41
2023/03/08 09:24:25;;;;;;;26.10;10.63;;;;;;;-0.69;100.00;99495.53;7396174;19;20147;-42
2023/03/08 09:26:54;;;;;;;26.65;10.52;;;;;;;-0.67;100.00;99493.06;7391587;19;20217;-41
2023/03/08 09:29:24;;;;;;;27.75;11.43;;;;;;;-0.59;100.00;99491.94;7395523;19;20622;-44
2023/03/08 09:31:53;;;;;;;25.08;9.65;;;;;;;-0.52;100.00;99490.66;7390194;19;20219;-44
2023/03/08 09:34:25;;;;;;;27.50;12.27;;;;;;;-0.52;100.00;99493.19;7394956;19;20149;-42
2023/03/08 09:36:55;;;;;;;26.75;9.07;;;;;;;-0.59;100.00;99491.03;7391316;19;20237;-43
2023/03/08 09:39:27;;;;;;;30.05;11.73;;;;;;;-0.60;100.00;99492.72;7395351;19;20222;-41
2023/03/08 09:41:59;;;;;;;28.80;11.52;;;;;;;-0.59;100.00;99488.50;7390745;19;20202;-43
2023/03/08 09:44:47;;;;;;;26.58;12.15;;;;;;;-0.59;100.00;99494.47;7395835;19;20139;-43
2023/03/08 09:47:24;;;;;;;28.10;11.85;;;;;;;-0.52;100.00;99487.28;7390946;19;20194;-42
2023/03/08 09:49:55;;;;;;;28.40;11.48;;;;;;;-0.55;100.00;99485.41;7390222;19;20161;-41
2023/03/08 09:52:31;;;;;;;27.40;11.55;;;;;;;-0.53;100.00;99488.91;7390509;19;20198;-40
2023/03/08 09:55:04;;;;;;;25.58;10.43;;;;;;;-0.47;100.00;99479.19;7393924;19;20159;-42
2023/03/08 09:57:37;;;;;;;34.55;9.93;;;;;;;-0.48;100.00;99492.63;7391017;19;20190;-43
2023/03/08 10:00:20;;;;;;;27.25;11.65;;;;;;;-0.44;100.00;99475.97;7394106;19;20150;-43
2023/03/08 10:03:03;;;;;;;28.52;10.15;;;;;;;-0.58;100.00;99477.59;7389704;19;20193;-42
2023/03/08 10:05:35;;;;;;;27.10;10.48;;;;;;;-0.62;100.00;99475.66;7391074;19;20146;-46
2023/03/08 10:08:08;;;;;;;26.60;12.43;;;;;;;-0.56;100.00;99468.47;7394592;19;20131;-41
2023/03/08 10:10:44;;;;;;;25.80;10.55;;;;;;;-0.45;100.00;99462.41;7391540;19;20190;-44
2023/03/08 10:13:29;;;;;;;31.95;11.27;;;;;;;-0.48;100.00;99462.22;7395451;19;20635;-42
2023/03/08 10:16:07;;;;;;;24.83;10.60;;;;;;;-0.45;100.00;99454.81;7386968;19;20200;-43
2023/03/08 10:18:40;;;;;;;26.92;11.18;;;;;;;-0.47;100.00;99442.84;7395094;19;20619;-41
2023/03/08 10:21:13;;;;;;;22.63;8.32;;;;;;;-0.61;100.00;99449.53;7391281;19;20202;-47
2023/03/08 10:23:42;;;;;;;23.95;9.05;;;;;;;-0.60;100.00;99446.22;7394568;19;20139;-41
2023/03/08 10:26:17;;;;;;;34.40;8.20;;;;;;;-0.49;100.00;99450.34;7392033;19;20198;-44
2023/03/08 10:28:46;;;;;;;22.90;8.35;;;;;;;-0.49;100.00;99446.91;7391870;19;20138;-42
2023/03/08 10:31:22;;;;;;;21.10;8.90;;;;;;;-0.32;100.00;99448.88;7384135;19;20222;-42
2023/03/08 10:33:57;;;;;;;22.38;8.90;;;;;;;-0.33;100.00;99456.38;7394335;19;20635;-41
2023/03/08 10:36:27;;;;;;;22.50;8.98;;;;;;;-0.36;100.00;99452.00;7389656;19;20204;-45
2023/03/08 10:39:08;;;;;;;21.38;9.18;;;;;;;-0.33;100.00;99461.47;7393674;19;20134;-45
2023/03/08 10:41:43;;;;;;;21.63;9.20;;;;;;;-0.28;100.00;99455.91;7389256;19;20557;-43
2023/03/08 10:44:16;;;;;;;23.95;8.18;;;;;;;-0.21;100.00;99454.63;7393836;19;20162;-40
2023/03/08 10:46:50;;;;;;;26.88;8.40;;;;;;;-0.11;100.00;99457.78;7389598;19;20200;-45
2023/03/08 10:49:21;;;;;;;18.60;8.52;;;;;;;-0.05;100.00;99459.03;7393570;19;20146;-43
2023/03/08 10:51:55;;;;;;;21.45;8.02;;;;;;;0.08;100.00;99462.34;7388568;19;20205;-44
2023/03/08 10:54:25;;;;;;;29.20;9.05;;;;;;;0.10;100.00;99464.19;7394053;19;20138;-41
2023/03/08 10:56:59;;;;;;;19.80;9.48;;;;;;;0.27;100.00;99461.84;7388405;19;20190;-47
2023/03/08 10:59:31;;;;;;;21.50;8.30;;;;;;;0.29;100.00;99459.41;7392789;19;20134;-51
2023/03/08 11:02:03;;;;;;;19.83;8.13;;;;;;;0.39;100.00;99471.88;7387450;19;20454;-45
2023/03/08 11:04:33;;;;;;;17.92;8.27;;;;;;;0.33;100.00;99471.47;7394005;19;20402;-46
2023/03/08 11:07:12;;;;;;;20.17;7.00;;;;;;;0.35;100.00;99478.41;7388258;19;20543;-43
2023/03/08 11:09:41;;;;;;;19.37;8.20;;;;;;;0.37;100.00;99489.53;7389227;19;20134;-40
2023/03/08 11:12:24;;;;;;;19.10;7.53;;;;;;;0.42;100.00;99500.00;7383475;19;20426;-39
2023/03/08 11:14:56;;;;;;;16.60;7.10;;;;;;;0.54;100.00;99494.78;7389400;19;20168;-42
2023/03/08 11:17:29;;;;;;;15.07;6.87;;;;;;;0.59;100.00;99498.50;7391861;19;20790;-43
2023/03/08 11:20:09;;;;;;;15.60;7.13;;;;;;;0.50;100.00;99497.91;7398297;19;20382;-43
2023/03/08 11:23:00;;;;;;;16.93;6.50;;;;;;;0.56;100.00;99497.44;7392725;19;20434;-43
2023/03/08 11:25:38;;;;;;;20.47;7.93;;;;;;;0.42;100.00;99496.56;7397155;19;20426;-40
2023/03/08 11:28:33;;;;;;;21.50;8.60;;;;;;;0.60;100.00;99491.72;7398005;19;20434;-41
2023/03/08 11:31:15;;;;;;;17.57;6.70;;;;;;;0.59;100.00;99489.97;7393882;19;20403;-46
2023/03/08 11:33:59;;;;;;;22.30;7.30;;;;;;;0.77;100.00;99491.09;7398774;19;20395;-45
2023/03/08 11:36:32;;;;;;;15.33;7.23;;;;;;;0.78;100.00;99489.47;7393594;19;20442;-42
2023/03/08 11:39:13;;;;;;;17.83;7.93;;;;;;;0.91;100.00;99483.44;7398765;19;20486;-43